createdAt,value
2022-08-11T00:00:54.458Z,21.97
2022-08-11T00:02:04.936Z,22.05
2022-08-11T00:03:14.481Z,21.86
2022-08-11T00:04:22.622Z,21.68
2022-08-11T00:05:29.609Z,21.55
2022-08-11T00:06:39.683Z,21.75
2022-08-11T00:07:55.779Z,21.95
2022-08-11T00:09:06.398Z,21.70
2022-08-11T00:10:19.883Z,21.67
2022-08-11T00:11:39.080Z,21.49
2022-08-11T00:12:47.075Z,21.29
2022-08-11T00:13:56.108Z,21.18
2022-08-11T00:15:02.907Z,21.16
2022-08-11T00:16:25.513Z,21.50
2022-08-11T00:17:34.749Z,21.45
2022-08-11T00:18:46.937Z,21.47
2022-08-11T00:20:15.435Z,21.46
2022-08-11T00:22:02.131Z,21.25
2022-08-11T00:22:53.339Z,21.41
2022-08-11T00:24:04.552Z,21.35
2022-08-11T00:25:23.459Z,21.37
2022-08-11T00:26:30.149Z,21.21
2022-08-11T00:27:38.362Z,20.92
2022-08-11T00:28:47.834Z,20.65
2022-08-11T00:29:56.834Z,20.76
2022-08-11T00:31:39.613Z,20.68
2022-08-11T00:32:56.143Z,20.66
2022-08-11T00:34:05.541Z,20.55
2022-08-11T00:35:54.809Z,20.35
2022-08-11T00:36:59.450Z,20.23
2022-08-11T00:38:06.514Z,20.43
2022-08-11T00:39:14.711Z,20.42
2022-08-11T00:40:28.622Z,20.45
2022-08-11T00:41:41.444Z,20.18
2022-08-11T00:42:51.902Z,20.13
2022-08-11T00:44:36.020Z,19.97
2022-08-11T00:46:12.300Z,19.75
2022-08-11T00:47:25.491Z,19.42
2022-08-11T00:48:56.725Z,19.16
2022-08-11T00:50:16.208Z,18.61
2022-08-11T00:52:05.517Z,18.56
2022-08-11T00:53:48.421Z,18.46
2022-08-11T00:55:35.014Z,18.24
2022-08-11T00:57:36.860Z,17.91
2022-08-11T00:59:05.977Z,17.73
2022-08-11T01:00:57.184Z,17.86
2022-08-11T01:02:40.763Z,17.65
2022-08-11T01:04:23.574Z,17.55
2022-08-11T01:05:40.165Z,17.59
2022-08-11T01:08:00.487Z,17.52
2022-08-11T01:09:09.841Z,17.26
2022-08-11T01:10:56.377Z,17.01
2022-08-11T01:12:46.559Z,16.94
2022-08-11T01:14:34.449Z,17.06
2022-08-11T01:16:29.079Z,16.90
2022-08-11T01:17:57.419Z,16.67
2022-08-11T01:20:47.373Z,16.33
2022-08-11T01:21:37.153Z,16.33
2022-08-11T01:23:17.652Z,16.65
2022-08-11T01:25:00.201Z,16.44
2022-08-11T01:26:30.696Z,16.27
2022-08-11T01:28:10.641Z,16.15
2022-08-11T01:30:03.603Z,16.36
2022-08-11T01:31:47.320Z,16.00
2022-08-11T01:33:11.773Z,15.98
2022-08-11T01:34:22.894Z,16.13
2022-08-11T01:35:56.281Z,16.19
2022-08-11T01:37:06.165Z,16.09
2022-08-11T01:38:29.268Z,16.03
2022-08-11T01:39:41.058Z,15.87
2022-08-11T01:41:09.384Z,15.86
2022-08-11T01:42:46.685Z,15.83
2022-08-11T01:44:42.592Z,16.21
2022-08-11T01:46:01.694Z,16.12
2022-08-11T01:47:53.741Z,16.37
2022-08-11T01:49:01.312Z,16.71
2022-08-11T01:51:03.010Z,17.02
2022-08-11T01:53:04.151Z,17.19
2022-08-11T01:54:43.380Z,17.27
2022-08-11T01:56:13.025Z,17.81
2022-08-11T01:57:37.920Z,17.93
2022-08-11T01:59:11.404Z,18.07
2022-08-11T02:00:21.897Z,18.27
2022-08-11T02:01:46.444Z,18.39
2022-08-11T02:03:02.927Z,18.57
2022-08-11T02:04:28.401Z,18.52
2022-08-11T02:05:50.707Z,18.80
2022-08-11T02:07:08.896Z,19.26
2022-08-11T02:08:33.851Z,19.49
2022-08-11T02:09:49.645Z,19.88
2022-08-11T02:11:31.035Z,20.07
2022-08-11T02:12:54.249Z,20.39
2022-08-11T02:14:23.442Z,20.75
2022-08-11T02:15:47.292Z,20.91
2022-08-11T02:17:20.752Z,21.03
2022-08-11T02:18:59.158Z,21.35
2022-08-11T02:20:46.325Z,21.52
2022-08-11T02:22:33.968Z,21.67
2022-08-11T02:24:06.932Z,21.77
2022-08-11T02:25:31.602Z,22.00
2022-08-11T02:26:43.396Z,22.22
2022-08-11T02:28:05.165Z,22.28
2022-08-11T02:29:26.328Z,22.70
2022-08-11T02:30:39.172Z,22.91
2022-08-11T02:32:40.192Z,23.04
2022-08-11T02:33:49.538Z,23.44
2022-08-11T02:35:02.319Z,23.82
2022-08-11T02:36:22.997Z,23.64
2022-08-11T02:37:36.091Z,23.86
2022-08-11T02:39:10.605Z,24.09
2022-08-11T02:40:37.315Z,24.15
2022-08-11T02:42:32.023Z,24.35
2022-08-11T02:44:13.280Z,24.36
2022-08-11T02:46:18.563Z,24.58
2022-08-11T02:48:08.943Z,24.66
2022-08-11T02:50:06.241Z,24.82
2022-08-11T02:51:36.813Z,25.04
2022-08-11T02:53:05.232Z,25.02
2022-08-11T02:54:20.907Z,25.02
2022-08-11T02:55:57.396Z,25.08
2022-08-11T02:57:11.455Z,25.25
2022-08-11T02:58:36.166Z,25.48
2022-08-11T03:00:14.189Z,25.40
2022-08-11T03:01:31.204Z,25.85
2022-08-11T03:03:01.876Z,25.85
2022-08-11T03:04:19.625Z,26.28
2022-08-11T03:05:58.628Z,26.23
2022-08-11T03:07:47.639Z,26.28
2022-08-11T03:09:29.248Z,26.14
2022-08-11T03:11:15.467Z,26.43
2022-08-11T03:13:03.532Z,26.74
2022-08-11T03:14:48.259Z,26.69
2022-08-11T03:16:40.583Z,26.64
2022-08-11T03:18:07.861Z,26.74
2022-08-11T03:19:51.973Z,26.97
2022-08-11T03:21:23.516Z,27.26
2022-08-11T03:22:41.949Z,27.45
2022-08-11T03:24:11.758Z,27.38
2022-08-11T03:25:55.390Z,27.51
2022-08-11T03:27:08.102Z,27.59
2022-08-11T03:28:45.821Z,27.72
2022-08-11T03:30:05.949Z,27.99
2022-08-11T03:31:26.745Z,28.01
2022-08-11T03:33:29.649Z,28.13
2022-08-11T03:34:39.676Z,28.20
2022-08-11T03:36:26.782Z,28.37
2022-08-11T03:37:57.629Z,28.77
2022-08-11T03:39:09.847Z,28.93
2022-08-11T03:40:53.254Z,29.17
2022-08-11T03:42:37.987Z,29.19
2022-08-11T03:44:41.089Z,29.12
2022-08-11T03:46:04.496Z,29.28
2022-08-11T03:47:26.670Z,29.47
2022-08-11T03:48:56.474Z,29.49
2022-08-11T03:50:23.243Z,29.57
2022-08-11T03:51:51.769Z,29.73
2022-08-11T03:53:12.688Z,29.89
2022-08-11T03:54:39.765Z,29.63
2022-08-11T03:56:23.447Z,29.83
2022-08-11T03:57:48.656Z,30.10
2022-08-11T03:59:18.610Z,30.19
2022-08-11T04:00:48.478Z,30.24
2022-08-11T04:02:26.839Z,30.29
2022-08-11T04:04:07.078Z,30.60
2022-08-11T04:05:55.950Z,30.61
2022-08-11T04:07:42.826Z,30.63
2022-08-11T04:09:05.627Z,30.69
2022-08-11T04:10:39.752Z,30.83
2022-08-11T04:12:17.337Z,31.07
2022-08-11T04:14:28.586Z,31.35
2022-08-11T04:16:13.101Z,31.34
2022-08-11T04:17:36.971Z,31.30
2022-08-11T04:19:01.654Z,31.70
2022-08-11T04:20:33.218Z,31.70
2022-08-11T04:22:04.288Z,31.74
2022-08-11T04:24:35.483Z,31.79
2022-08-11T04:25:16.763Z,31.46
2022-08-11T04:26:47.163Z,31.76
2022-08-11T04:28:31.312Z,31.56
2022-08-11T04:30:01.978Z,31.59
2022-08-11T04:31:44.056Z,31.41
2022-08-11T04:33:38.479Z,31.32
2022-08-11T04:35:17.897Z,31.09
2022-08-11T04:37:03.675Z,31.03
2022-08-11T04:38:47.164Z,30.93
2022-08-11T04:40:14.951Z,30.83
2022-08-11T04:42:02.172Z,30.63
2022-08-11T04:44:06.223Z,30.79
2022-08-11T04:45:45.623Z,30.80
2022-08-11T04:47:11.368Z,30.77
2022-08-11T04:48:53.327Z,30.69
2022-08-11T04:50:27.830Z,30.86
2022-08-11T04:52:21.084Z,30.91
2022-08-11T04:54:19.147Z,31.06
2022-08-11T04:56:00.083Z,31.34
2022-08-11T04:57:32.312Z,31.28
2022-08-11T04:59:31.785Z,31.42
2022-08-11T05:01:37.291Z,31.37
2022-08-11T05:03:12.494Z,31.37
2022-08-11T05:05:07.659Z,31.38
2022-08-11T05:06:26.091Z,31.17
2022-08-11T05:07:50.883Z,31.27
2022-08-11T05:09:18.214Z,31.21
2022-08-11T05:10:39.935Z,30.98
2022-08-11T05:12:16.682Z,31.04
2022-08-11T05:13:55.367Z,31.07
2022-08-11T05:15:23.283Z,31.07
2022-08-11T05:17:11.224Z,30.90
2022-08-11T05:18:42.298Z,31.08
2022-08-11T05:20:08.374Z,31.02
2022-08-11T05:21:45.165Z,31.10
2022-08-11T05:23:12.502Z,31.06
2022-08-11T05:24:43.470Z,31.34
2022-08-11T05:26:46.108Z,31.58
2022-08-11T05:28:11.500Z,31.44
2022-08-11T05:30:11.557Z,31.42
2022-08-11T05:31:38.458Z,31.07
2022-08-11T05:33:04.988Z,31.24
2022-08-11T05:34:44.063Z,31.14
2022-08-11T05:36:00.612Z,31.45
2022-08-11T05:37:27.131Z,31.35
2022-08-11T05:38:55.310Z,31.30
2022-08-11T05:40:40.504Z,31.30
2022-08-11T05:42:21.334Z,31.68
2022-08-11T05:44:19.912Z,31.87
2022-08-11T05:46:03.999Z,31.81
2022-08-11T05:47:35.698Z,31.86
2022-08-11T05:49:01.967Z,32.02
2022-08-11T05:50:31.269Z,32.17
2022-08-11T05:52:12.917Z,32.22
2022-08-11T05:53:46.280Z,32.20
2022-08-11T05:55:11.689Z,32.32
2022-08-11T05:56:21.758Z,32.34
2022-08-11T05:57:49.575Z,32.61
2022-08-11T05:59:00.862Z,32.44
2022-08-11T06:00:12.718Z,32.71
2022-08-11T06:01:32.382Z,32.90
2022-08-11T06:02:56.493Z,33.23
2022-08-11T06:04:17.102Z,33.38
2022-08-11T06:05:26.358Z,33.38
2022-08-11T06:06:34.179Z,33.38
2022-08-11T06:07:48.938Z,33.59
2022-08-11T06:08:58.989Z,33.49
2022-08-11T06:10:06.812Z,33.51
2022-08-11T06:11:16.410Z,33.48
2022-08-11T06:12:29.908Z,33.50
2022-08-11T06:13:36.167Z,33.18
2022-08-11T06:14:46.638Z,33.18
2022-08-11T06:15:57.008Z,33.19
2022-08-11T06:17:07.447Z,33.10
2022-08-11T06:18:14.898Z,32.91
2022-08-11T06:19:24.354Z,32.71
2022-08-11T06:20:38.505Z,32.58
2022-08-11T06:21:48.157Z,32.43
2022-08-11T06:23:04.940Z,32.18
2022-08-11T06:24:16.932Z,32.17
2022-08-11T06:25:23.800Z,32.31
2022-08-11T06:26:37.534Z,32.52
2022-08-11T06:28:00.168Z,32.53
2022-08-11T06:29:06.384Z,32.57
2022-08-11T06:30:15.040Z,32.70
2022-08-11T06:31:21.736Z,32.74
2022-08-11T06:32:32.749Z,32.69
2022-08-11T06:34:11.015Z,32.58
2022-08-11T06:35:31.954Z,32.33
2022-08-11T06:36:47.111Z,32.21
2022-08-11T06:38:03.844Z,32.33
2022-08-11T06:39:30.976Z,32.16
2022-08-11T06:41:21.433Z,32.08
2022-08-11T06:42:34.992Z,32.05
2022-08-11T06:44:11.218Z,32.00
2022-08-11T06:45:17.339Z,31.89
2022-08-11T06:46:31.602Z,31.81
2022-08-11T06:47:40.760Z,31.90
2022-08-11T06:48:47.547Z,31.84
2022-08-11T06:50:13.411Z,31.77
2022-08-11T06:51:21.149Z,31.83
2022-08-11T06:52:36.505Z,32.02
2022-08-11T06:54:03.649Z,32.13
2022-08-11T06:55:57.952Z,32.13
2022-08-11T06:57:30.899Z,32.19
2022-08-11T06:58:59.305Z,32.23
2022-08-11T07:00:27.908Z,32.52
2022-08-11T07:01:56.262Z,32.66
2022-08-11T07:03:09.820Z,32.82
2022-08-11T07:04:44.595Z,33.00
2022-08-11T07:06:20.976Z,33.02
2022-08-11T07:08:33.727Z,33.12
2022-08-11T07:10:18.885Z,33.36
2022-08-11T07:12:00.780Z,33.65
2022-08-11T07:13:44.415Z,33.84
2022-08-11T07:16:10.820Z,33.88
2022-08-11T07:17:04.662Z,34.13
2022-08-11T07:18:46.294Z,34.24
2022-08-11T07:20:20.178Z,34.30
2022-08-11T07:22:02.527Z,34.52
2022-08-11T07:23:30.243Z,34.78
2022-08-11T07:25:18.792Z,34.71
2022-08-11T07:26:46.739Z,35.04
2022-08-11T07:28:53.936Z,35.13
2022-08-11T07:30:00.335Z,35.28
2022-08-11T07:31:43.067Z,35.42
2022-08-11T07:32:58.372Z,35.40
2022-08-11T07:34:29.678Z,35.46
2022-08-11T07:35:45.573Z,35.58
2022-08-11T07:37:06.171Z,35.98
2022-08-11T07:38:22.676Z,36.09
2022-08-11T07:39:35.348Z,36.27
2022-08-11T07:40:44.766Z,36.51
2022-08-11T07:41:53.013Z,36.61
2022-08-11T07:43:02.323Z,36.86
2022-08-11T07:44:12.702Z,36.94
2022-08-11T07:45:40.943Z,36.79
2022-08-11T07:47:10.314Z,36.70
2022-08-11T07:48:39.205Z,36.80
2022-08-11T07:50:04.415Z,36.72
2022-08-11T07:51:31.572Z,36.67
2022-08-11T07:52:41.631Z,36.78
2022-08-11T07:53:58.524Z,36.76
2022-08-11T07:55:19.737Z,36.94
2022-08-11T07:56:45.596Z,36.99
2022-08-11T07:58:19.853Z,37.01
2022-08-11T07:59:58.548Z,37.03
2022-08-11T08:01:32.812Z,37.12
2022-08-11T08:03:05.009Z,37.08
2022-08-11T08:04:37.997Z,36.99
2022-08-11T08:06:28.392Z,36.92
2022-08-11T08:07:53.292Z,36.94
2022-08-11T08:09:22.473Z,37.21
2022-08-11T08:10:48.893Z,37.52
2022-08-11T08:12:18.844Z,37.71
2022-08-11T08:13:47.930Z,37.90
2022-08-11T08:15:18.767Z,37.87
2022-08-11T08:16:47.429Z,38.10
2022-08-11T08:18:20.903Z,38.36
2022-08-11T08:19:31.818Z,38.39
2022-08-11T08:20:41.496Z,38.42
2022-08-11T08:21:47.455Z,38.56
2022-08-11T08:23:00.586Z,38.62
2022-08-11T08:24:09.047Z,38.71
2022-08-11T08:25:16.164Z,38.66
2022-08-11T08:26:51.260Z,38.58
2022-08-11T08:28:00.863Z,38.80
2022-08-11T08:29:29.981Z,38.72
2022-08-11T08:30:48.828Z,38.79
2022-08-11T08:31:55.996Z,38.73
2022-08-11T08:33:02.229Z,38.77
2022-08-11T08:34:09.371Z,39.33
2022-08-11T08:35:18.023Z,39.16
2022-08-11T08:36:25.271Z,39.03
2022-08-11T08:37:46.355Z,38.98
2022-08-11T08:38:55.518Z,38.87
2022-08-11T08:40:01.624Z,38.76
2022-08-11T08:41:13.297Z,38.64
2022-08-11T08:42:31.720Z,38.60
2022-08-11T08:43:48.524Z,38.50
2022-08-11T08:45:13.466Z,38.42
2022-08-11T08:46:27.280Z,38.29
2022-08-11T08:47:43.046Z,38.43
2022-08-11T08:48:54.990Z,38.53
2022-08-11T08:50:09.145Z,38.62
2022-08-11T08:52:02.500Z,38.60
2022-08-11T08:53:06.880Z,39.03
2022-08-11T08:54:38.078Z,39.47
2022-08-11T08:55:45.752Z,39.69
2022-08-11T08:56:54.803Z,39.71
2022-08-11T08:58:01.437Z,39.58
2022-08-11T08:59:08.163Z,39.80
2022-08-11T09:00:20.726Z,39.72
2022-08-11T09:01:45.110Z,39.82
2022-08-11T09:02:51.914Z,39.91
2022-08-11T09:04:04.788Z,39.89
2022-08-11T09:05:19.414Z,39.94
2022-08-11T09:06:27.620Z,40.10
2022-08-11T09:07:39.835Z,40.09
2022-08-11T09:08:46.968Z,39.98
2022-08-11T09:10:00.062Z,39.93
2022-08-11T09:11:25.251Z,40.03
2022-08-11T09:12:38.595Z,40.10
2022-08-11T09:14:06.566Z,40.06
2022-08-11T09:15:19.768Z,40.23
2022-08-11T09:16:26.200Z,40.68
2022-08-11T09:17:46.911Z,40.68
2022-08-11T09:18:53.562Z,40.51
2022-08-11T09:20:07.829Z,40.36
2022-08-11T09:21:46.226Z,40.31
2022-08-11T09:24:07.029Z,40.05
2022-08-11T09:24:52.167Z,39.77
2022-08-11T09:26:30.993Z,40.65
2022-08-11T09:27:40.518Z,40.46
2022-08-11T09:29:00.648Z,40.38
2022-08-11T09:30:09.552Z,40.52
2022-08-11T09:31:17.253Z,40.53
2022-08-11T09:32:23.486Z,40.49
2022-08-11T09:33:30.100Z,40.61
2022-08-11T09:34:38.035Z,40.60
2022-08-11T09:35:47.277Z,40.64
2022-08-11T09:37:28.463Z,41.00
2022-08-11T09:39:04.371Z,41.39
2022-08-11T09:40:31.513Z,41.87
2022-08-11T09:42:01.813Z,41.59
2022-08-11T09:43:26.527Z,41.40
2022-08-11T09:44:53.426Z,41.49
2022-08-11T09:46:00.937Z,41.38
2022-08-11T09:47:13.654Z,41.55
2022-08-11T09:48:24.605Z,41.38
2022-08-11T09:49:30.814Z,41.23
2022-08-11T09:50:36.828Z,41.23
2022-08-11T09:51:56.514Z,41.20
2022-08-11T09:53:37.423Z,41.18
2022-08-11T09:54:43.347Z,41.20
2022-08-11T09:55:56.838Z,41.19
2022-08-11T09:57:23.610Z,41.11
2022-08-11T09:58:41.601Z,40.99
2022-08-11T09:59:52.195Z,40.99
2022-08-11T10:00:58.119Z,41.08
2022-08-11T10:02:04.241Z,41.12
2022-08-11T10:03:31.784Z,41.17
2022-08-11T10:04:46.033Z,41.24
2022-08-11T10:06:34.073Z,41.26
2022-08-11T10:07:50.939Z,41.34
2022-08-11T10:08:57.625Z,41.33
2022-08-11T10:10:04.187Z,41.29
2022-08-11T10:11:14.478Z,41.59
2022-08-11T10:12:34.499Z,41.71
2022-08-11T10:14:33.153Z,41.81
2022-08-11T10:15:35.823Z,41.79
2022-08-11T10:16:45.382Z,41.90
2022-08-11T10:18:13.347Z,42.04
2022-08-11T10:19:20.621Z,42.10
2022-08-11T10:20:26.897Z,42.15
2022-08-11T10:21:39.218Z,42.15
2022-08-11T10:23:06.675Z,42.28
2022-08-11T10:24:32.550Z,42.41
2022-08-11T10:26:00.501Z,42.52
2022-08-11T10:28:18.376Z,42.51
2022-08-11T10:29:12.999Z,42.95
2022-08-11T10:30:42.335Z,43.77
2022-08-11T10:32:12.830Z,43.41
2022-08-11T10:33:59.174Z,43.36
2022-08-11T10:35:09.758Z,44.27
2022-08-11T10:36:17.114Z,45.13
2022-08-11T10:38:15.686Z,45.65
2022-08-11T10:38:57.787Z,45.65
2022-08-11T10:40:08.521Z,45.37
2022-08-11T10:41:33.992Z,45.44
2022-08-11T10:43:00.393Z,45.46
2022-08-11T10:44:35.874Z,45.29
2022-08-11T10:46:04.229Z,45.40
2022-08-11T10:47:33.688Z,45.48
2022-08-11T10:48:39.784Z,45.92
2022-08-11T10:50:05.996Z,46.19
2022-08-11T10:51:44.670Z,46.83
2022-08-11T10:53:04.070Z,46.93
2022-08-11T10:54:28.034Z,47.38
2022-08-11T10:55:58.365Z,47.60
2022-08-11T10:57:27.790Z,47.06
2022-08-11T10:58:53.122Z,46.89
2022-08-11T11:00:02.199Z,46.90
2022-08-11T11:01:11.100Z,47.00
2022-08-11T11:02:19.637Z,46.85
2022-08-11T11:03:35.078Z,46.70
2022-08-11T11:04:52.268Z,46.65
2022-08-11T11:06:56.285Z,46.82
2022-08-11T11:08:34.955Z,46.64
2022-08-11T11:09:57.312Z,46.75
2022-08-11T11:11:04.161Z,47.19
2022-08-11T11:12:52.119Z,47.24
2022-08-11T11:14:16.801Z,46.71
2022-08-11T11:15:43.947Z,46.51
2022-08-11T11:17:09.545Z,46.42
2022-08-11T11:19:01.006Z,46.40
2022-08-11T11:20:34.792Z,46.41
2022-08-11T11:21:39.789Z,46.37
2022-08-11T11:22:52.888Z,46.69
2022-08-11T11:24:34.802Z,46.75
2022-08-11T11:26:11.336Z,46.76
2022-08-11T11:27:33.015Z,46.57
2022-08-11T11:29:21.312Z,46.67
2022-08-11T11:30:33.685Z,46.67
2022-08-11T11:32:01.271Z,46.64
2022-08-11T11:33:27.416Z,46.58
2022-08-11T11:34:53.511Z,46.56
2022-08-11T11:36:29.866Z,46.20
2022-08-11T11:37:37.511Z,45.96
2022-08-11T11:38:45.395Z,45.70
2022-08-11T11:40:16.064Z,45.65
2022-08-11T11:41:25.857Z,45.56
2022-08-11T11:42:34.179Z,45.47
2022-08-11T11:43:40.041Z,45.42
2022-08-11T11:44:46.765Z,45.42
2022-08-11T11:45:54.052Z,45.39
2022-08-11T11:47:01.943Z,45.50
2022-08-11T11:48:08.222Z,45.41
2022-08-11T11:49:17.193Z,45.48
2022-08-11T11:50:31.830Z,45.39
2022-08-11T11:51:40.411Z,45.40
2022-08-11T11:52:50.177Z,45.50
2022-08-11T11:53:56.526Z,45.40
2022-08-11T11:55:02.274Z,45.43
2022-08-11T11:56:08.344Z,45.54
2022-08-11T11:57:34.753Z,45.76
2022-08-11T11:59:01.181Z,45.78
2022-08-11T12:00:33.124Z,45.76
2022-08-11T12:01:40.353Z,45.94
2022-08-11T12:02:47.702Z,46.05
2022-08-11T12:03:55.096Z,45.91
2022-08-11T12:05:02.568Z,45.78
2022-08-11T12:06:09.383Z,45.97
2022-08-11T12:07:34.123Z,45.85
2022-08-11T12:08:40.769Z,45.56
2022-08-11T12:09:47.497Z,45.35
2022-08-11T12:11:20.623Z,45.16
2022-08-11T12:12:48.476Z,45.07
2022-08-11T12:13:55.084Z,45.07
2022-08-11T12:15:01.289Z,45.00
2022-08-11T12:16:33.612Z,45.08
2022-08-11T12:17:40.752Z,45.65
2022-08-11T12:18:48.981Z,46.32
2022-08-11T12:19:58.447Z,47.01
2022-08-11T12:21:05.447Z,47.52
2022-08-11T12:22:33.393Z,47.61
2022-08-11T12:24:04.085Z,47.62
2022-08-11T12:25:32.595Z,47.49
2022-08-11T12:27:16.068Z,47.94
2022-08-11T12:28:29.229Z,48.28
2022-08-11T12:29:36.065Z,48.50
2022-08-11T12:31:48.466Z,48.22
2022-08-11T12:32:54.684Z,48.30
2022-08-11T12:34:07.935Z,48.49
2022-08-11T12:35:15.963Z,48.52
2022-08-11T12:36:22.074Z,48.49
2022-08-11T12:37:37.099Z,49.05
2022-08-11T12:38:44.088Z,49.76
2022-08-11T12:40:43.688Z,49.79
2022-08-11T12:42:13.274Z,49.55
2022-08-11T12:43:57.573Z,49.95
2022-08-11T12:45:23.750Z,49.96
2022-08-11T12:46:39.059Z,49.96
2022-08-11T12:48:14.000Z,49.95
2022-08-11T12:49:54.396Z,50.11
2022-08-11T12:51:27.063Z,50.63
2022-08-11T12:52:36.740Z,50.91
2022-08-11T12:53:46.241Z,50.69
2022-08-11T12:55:14.792Z,50.27
2022-08-11T12:56:39.598Z,50.09
2022-08-11T12:58:07.487Z,49.74
2022-08-11T12:59:32.644Z,49.48
2022-08-11T13:00:59.323Z,49.59
2022-08-11T13:02:26.017Z,49.24
2022-08-11T13:03:56.691Z,49.06
2022-08-11T13:05:07.560Z,49.07
2022-08-11T13:06:15.077Z,49.05
2022-08-11T13:07:25.877Z,49.16
2022-08-11T13:08:35.944Z,49.11
2022-08-11T13:09:41.726Z,49.19
2022-08-11T13:11:09.088Z,49.24
2022-08-11T13:12:36.217Z,49.26
2022-08-11T13:13:53.955Z,49.26
2022-08-11T13:15:05.415Z,49.65
2022-08-11T13:16:12.876Z,49.75
2022-08-11T13:17:43.638Z,49.75
2022-08-11T13:18:53.950Z,49.61
2022-08-11T13:20:00.944Z,49.32
2022-08-11T13:21:10.379Z,49.04
2022-08-11T13:22:18.593Z,48.81
2022-08-11T13:23:26.184Z,48.77
2022-08-11T13:24:34.657Z,48.53
2022-08-11T13:25:41.913Z,48.20
2022-08-11T13:26:51.004Z,48.03
2022-08-11T13:28:03.886Z,47.73
2022-08-11T13:29:12.754Z,47.63
2022-08-11T13:30:41.143Z,47.52
2022-08-11T13:31:49.214Z,46.82
2022-08-11T13:32:57.803Z,46.59
2022-08-11T13:35:18.368Z,46.32
2022-08-11T13:36:26.567Z,46.26
2022-08-11T13:38:18.678Z,46.08
2022-08-11T13:39:00.666Z,45.85
2022-08-11T13:40:07.334Z,45.87
2022-08-11T13:41:34.386Z,45.82
2022-08-11T13:42:43.202Z,45.68
2022-08-11T13:43:50.671Z,45.47
2022-08-11T13:44:58.659Z,45.25
2022-08-11T13:46:23.969Z,44.56
2022-08-11T13:47:34.030Z,43.98
2022-08-11T13:48:50.165Z,43.83
2022-08-11T13:49:58.130Z,44.13
2022-08-11T13:51:33.146Z,44.19
2022-08-11T13:52:48.048Z,44.20
2022-08-11T13:54:01.907Z,43.93
2022-08-11T13:55:33.205Z,43.73
2022-08-11T13:56:55.112Z,43.81
2022-08-11T13:58:08.422Z,43.67
2022-08-11T13:59:29.616Z,43.48
2022-08-11T14:00:38.999Z,43.48
2022-08-11T14:02:21.901Z,43.39
2022-08-11T14:04:30.515Z,43.26
2022-08-11T14:05:09.803Z,42.86
2022-08-11T14:06:18.360Z,42.57
2022-08-11T14:07:26.109Z,42.41
2022-08-11T14:08:38.344Z,42.32
2022-08-11T14:09:46.412Z,42.53
2022-08-11T14:12:23.261Z,42.38
2022-08-11T14:13:23.634Z,42.37
2022-08-11T14:14:36.046Z,42.56
2022-08-11T14:15:43.538Z,42.49
2022-08-11T14:16:49.671Z,42.10
2022-08-11T14:18:05.704Z,41.97
2022-08-11T14:19:13.607Z,42.27
2022-08-11T14:20:38.307Z,42.12
2022-08-11T14:22:07.812Z,41.75
2022-08-11T14:23:14.371Z,41.38
2022-08-11T14:24:20.751Z,41.27
2022-08-11T14:26:01.084Z,40.42
2022-08-11T14:26:55.764Z,40.50
2022-08-11T14:28:31.678Z,40.59
2022-08-11T14:29:33.200Z,40.16
2022-08-11T14:31:01.226Z,38.79
2022-08-11T14:32:09.963Z,38.49
2022-08-11T14:33:20.288Z,37.95
2022-08-11T14:34:30.621Z,37.00
2022-08-11T14:35:39.528Z,36.20
2022-08-11T14:37:00.497Z,35.60
2022-08-11T14:38:08.312Z,34.92
2022-08-11T14:39:18.702Z,34.96
2022-08-11T14:40:47.581Z,34.36
2022-08-11T14:42:22.505Z,34.04
2022-08-11T14:44:12.917Z,33.52
2022-08-11T14:45:54.626Z,32.96
2022-08-11T14:47:24.530Z,32.36
2022-08-11T14:48:34.602Z,32.00
2022-08-11T14:49:56.120Z,31.75
2022-08-11T14:51:12.034Z,31.69
2022-08-11T14:52:18.900Z,31.24
2022-08-11T14:53:25.096Z,31.07
2022-08-11T14:54:52.706Z,31.10
2022-08-11T14:56:18.711Z,30.57
2022-08-11T14:57:54.852Z,31.11
2022-08-11T14:58:54.597Z,30.89
2022-08-11T15:00:02.419Z,30.30
2022-08-11T15:01:29.731Z,29.97
2022-08-11T15:02:57.146Z,29.25
2022-08-11T15:04:35.820Z,28.24
2022-08-11T15:05:31.960Z,28.24
2022-08-11T15:06:37.973Z,27.96
2022-08-11T15:07:45.524Z,27.69
2022-08-11T15:08:57.031Z,27.50
2022-08-11T15:10:13.717Z,27.32
2022-08-11T15:11:44.935Z,27.20
2022-08-11T15:12:51.185Z,26.53
2022-08-11T15:13:58.406Z,26.18
2022-08-11T15:15:29.385Z,25.88
2022-08-11T15:16:57.660Z,25.50
2022-08-11T15:18:09.170Z,24.89
2022-08-11T15:19:29.464Z,24.53
2022-08-11T15:21:07.231Z,24.49
2022-08-11T15:22:33.025Z,24.37
2022-08-11T15:23:59.755Z,23.85
2022-08-11T15:25:05.987Z,23.75
2022-08-11T15:26:41.554Z,23.49
2022-08-11T15:28:09.010Z,23.55
2022-08-11T15:29:37.864Z,22.63
2022-08-11T15:31:03.388Z,22.75
2022-08-11T15:32:25.329Z,21.46
2022-08-11T15:33:50.720Z,21.41
2022-08-11T15:35:24.006Z,21.79
2022-08-11T15:36:54.215Z,22.17
2022-08-11T15:38:03.708Z,22.11
2022-08-11T15:39:21.111Z,21.79
2022-08-11T15:40:52.921Z,21.98
2022-08-11T15:42:23.150Z,21.68
2022-08-11T15:44:11.779Z,21.41
2022-08-11T15:45:43.948Z,21.25
2022-08-11T15:46:53.787Z,21.55
2022-08-11T15:48:08.618Z,21.39
2022-08-11T15:50:11.883Z,21.57
2022-08-11T15:51:32.811Z,21.52
2022-08-11T15:52:45.318Z,21.17
2022-08-11T15:53:57.212Z,20.53
2022-08-11T15:55:08.592Z,20.41
2022-08-11T15:56:17.847Z,20.16
2022-08-11T15:57:47.311Z,19.63
2022-08-11T15:59:40.742Z,19.48
2022-08-11T16:01:08.702Z,19.47
2022-08-11T16:02:33.715Z,19.38
2022-08-11T16:04:12.961Z,18.96
2022-08-11T16:05:45.895Z,18.85
2022-08-11T16:07:05.358Z,18.90
2022-08-11T16:08:15.205Z,18.70
2022-08-11T16:09:46.994Z,18.42
2022-08-11T16:10:57.424Z,18.32
2022-08-11T16:12:09.692Z,17.96
2022-08-11T16:13:17.536Z,18.34
2022-08-11T16:14:43.929Z,18.34
2022-08-11T16:16:13.901Z,18.71
2022-08-11T16:17:21.089Z,18.64
2022-08-11T16:18:44.598Z,18.67
2022-08-11T16:19:52.840Z,18.51
2022-08-11T16:21:02.275Z,18.11
2022-08-11T16:22:12.400Z,17.89
2022-08-11T16:23:18.799Z,17.74
2022-08-11T16:27:02.158Z,17.83
2022-08-11T16:27:03.734Z,18.27
2022-08-11T16:27:24.617Z,18.13
2022-08-11T16:28:32.567Z,18.24
2022-08-11T16:29:43.605Z,17.98
2022-08-11T16:30:49.980Z,17.77
2022-08-11T16:32:16.736Z,17.64
2022-08-11T16:33:50.307Z,17.63
2022-08-11T16:35:26.470Z,17.48
2022-08-11T16:36:52.813Z,17.37
2022-08-11T16:38:25.600Z,17.70
2022-08-11T16:39:35.971Z,17.30
2022-08-11T16:40:43.903Z,16.92
2022-08-11T16:42:08.408Z,16.34
2022-08-11T16:43:59.616Z,16.16
2022-08-11T16:45:26.605Z,16.11
2022-08-11T16:46:57.392Z,15.80
2022-08-11T16:48:35.730Z,15.67
2022-08-11T16:49:35.041Z,15.01
2022-08-11T16:50:42.253Z,14.86
2022-08-11T16:51:48.095Z,15.22
2022-08-11T16:52:55.032Z,15.43
2022-08-11T16:54:05.232Z,15.42
2022-08-11T16:55:14.437Z,15.44
2022-08-11T16:56:49.707Z,15.10
2022-08-11T16:58:16.288Z,14.54
2022-08-11T16:59:31.753Z,14.56
2022-08-11T17:00:38.964Z,14.73
2022-08-11T17:01:58.408Z,14.70
2022-08-11T17:03:23.664Z,14.94
2022-08-11T17:05:16.745Z,14.97
2022-08-11T17:06:41.682Z,15.25
2022-08-11T17:08:08.384Z,15.43
2022-08-11T17:09:37.415Z,15.07
2022-08-11T17:11:08.654Z,14.94
2022-08-11T17:12:35.245Z,15.31
2022-08-11T17:14:08.786Z,15.62
2022-08-11T17:15:40.179Z,15.56
2022-08-11T17:16:46.831Z,15.53
2022-08-11T17:17:53.881Z,15.84
2022-08-11T17:19:04.116Z,16.30
2022-08-11T17:20:38.428Z,16.65
2022-08-11T17:22:09.000Z,16.71
2022-08-11T17:23:36.759Z,16.78
2022-08-11T17:24:46.350Z,17.65
2022-08-11T17:26:03.026Z,17.56
2022-08-11T17:27:17.327Z,18.05
2022-08-11T17:28:26.088Z,18.11
2022-08-11T17:29:54.984Z,18.16
2022-08-11T17:31:26.899Z,18.63
2022-08-11T17:33:03.598Z,18.45
2022-08-11T17:34:30.276Z,18.37
2022-08-11T17:35:42.263Z,18.22
2022-08-11T17:36:52.232Z,17.98
2022-08-11T17:38:16.615Z,18.06
2022-08-11T17:39:32.903Z,17.83
2022-08-11T17:40:41.310Z,17.59
2022-08-11T17:42:21.026Z,17.79
2022-08-11T17:43:46.118Z,17.83
2022-08-11T17:45:11.216Z,17.63
2022-08-11T17:46:39.589Z,17.43
2022-08-11T17:48:05.033Z,17.05
2022-08-11T17:49:13.495Z,17.02
2022-08-11T17:50:21.341Z,16.86
2022-08-11T17:51:46.470Z,16.85
2022-08-11T17:53:14.643Z,16.15
2022-08-11T17:54:41.794Z,16.40
2022-08-11T17:56:07.091Z,16.25
2022-08-11T17:57:34.197Z,16.09
2022-08-11T17:59:00.761Z,16.40
2022-08-11T18:00:11.893Z,16.25